sensor_id;sensor_type;location;lat;lon;timestamp;pressure;altitude;pressure_sealevel;temperature;humidity
70009;BME280;59542;37.950;-122.338;2023-08-06T00:00:39;101286.19;;;21.00;59.28
70009;BME280;59542;37.950;-122.338;2023-08-06T00:03:05;101289.75;;;21.05;59.25
70009;BME280;59542;37.950;-122.338;2023-08-06T00:05:31;101287.47;;;20.87;60.50
70009;BME280;59542;37.950;-122.338;2023-08-06T00:07:58;101279.34;;;20.97;59.90
70009;BME280;59542;37.950;-122.338;2023-08-06T00:10:24;101271.22;;;20.50;60.75
70009;BME280;59542;37.950;-122.338;2023-08-06T00:12:50;101277.50;;;20.23;61.57
70009;BME280;59542;37.950;-122.338;2023-08-06T00:15:16;101278.00;;;20.52;61.83
70009;BME280;59542;37.950;-122.338;2023-08-06T00:17:43;101271.50;;;20.21;61.44
70009;BME280;59542;37.950;-122.338;2023-08-06T00:20:09;101271.16;;;20.13;62.50
70009;BME280;59542;37.950;-122.338;2023-08-06T00:22:37;101269.47;;;20.39;61.90
70009;BME280;59542;37.950;-122.338;2023-08-06T00:25:04;101272.97;;;20.34;62.12
70009;BME280;59542;37.950;-122.338;2023-08-06T00:27:31;101272.28;;;20.49;61.71
70009;BME280;59542;37.950;-122.338;2023-08-06T00:30:00;101265.06;;;20.33;62.64
70009;BME280;59542;37.950;-122.338;2023-08-06T00:32:26;101261.56;;;20.37;61.75
70009;BME280;59542;37.950;-122.338;2023-08-06T00:34:53;101255.75;;;20.23;62.21
70009;BME280;59542;37.950;-122.338;2023-08-06T00:37:19;101262.22;;;20.17;62.73
70009;BME280;59542;37.950;-122.338;2023-08-06T00:39:45;101246.19;;;19.84;63.18
70009;BME280;59542;37.950;-122.338;2023-08-06T00:42:12;101248.94;;;19.89;63.49
70009;BME280;59542;37.950;-122.338;2023-08-06T00:44:38;101246.28;;;19.94;63.69
70009;BME280;59542;37.950;-122.338;2023-08-06T00:47:06;101242.53;;;20.00;64.54
70009;BME280;59542;37.950;-122.338;2023-08-06T00:49:36;101242.28;;;19.74;64.11
70009;BME280;59542;37.950;-122.338;2023-08-06T00:52:05;101241.63;;;19.62;65.16
70009;BME280;59542;37.950;-122.338;2023-08-06T00:54:31;101241.97;;;19.44;65.91
70009;BME280;59542;37.950;-122.338;2023-08-06T00:56:59;101231.28;;;19.37;66.51
70009;BME280;59542;37.950;-122.338;2023-08-06T00:59:28;101222.84;;;19.34;66.87
70009;BME280;59542;37.950;-122.338;2023-08-06T01:01:54;101219.31;;;19.33;66.55
70009;BME280;59542;37.950;-122.338;2023-08-06T01:04:20;101212.25;;;19.32;66.94
70009;BME280;59542;37.950;-122.338;2023-08-06T01:15:34;101208.97;;;19.57;66.39
70009;BME280;59542;37.950;-122.338;2023-08-06T01:18:01;101214.06;;;19.53;66.42
70009;BME280;59542;37.950;-122.338;2023-08-06T01:20:29;101201.63;;;19.31;66.84
70009;BME280;59542;37.950;-122.338;2023-08-06T01:22:56;101207.44;;;19.39;67.67
70009;BME280;59542;37.950;-122.338;2023-08-06T01:25:33;101210.53;;;19.26;67.96
70009;BME280;59542;37.950;-122.338;2023-08-06T01:28:07;101200.50;;;19.53;67.46
70009;BME280;59542;37.950;-122.338;2023-08-06T01:30:41;101197.63;;;19.60;66.18
70009;BME280;59542;37.950;-122.338;2023-08-06T01:33:16;101201.75;;;19.41;66.83
70009;BME280;59542;37.950;-122.338;2023-08-06T01:35:46;101206.19;;;19.52;66.65
70009;BME280;59542;37.950;-122.338;2023-08-06T01:38:13;101212.09;;;19.44;66.52
70009;BME280;59542;37.950;-122.338;2023-08-06T01:40:39;101201.19;;;19.39;66.08
70009;BME280;59542;37.950;-122.338;2023-08-06T01:43:06;101202.66;;;19.24;67.33
70009;BME280;59542;37.950;-122.338;2023-08-06T01:45:32;101198.81;;;19.20;67.66
70009;BME280;59542;37.950;-122.338;2023-08-06T01:47:59;101190.91;;;19.19;67.78
70009;BME280;59542;37.950;-122.338;2023-08-06T01:50:25;101190.91;;;19.19;68.02
70009;BME280;59542;37.950;-122.338;2023-08-06T01:52:51;101187.56;;;19.34;67.64
70009;BME280;59542;37.950;-122.338;2023-08-06T01:55:17;101187.72;;;19.49;66.75
70009;BME280;59542;37.950;-122.338;2023-08-06T01:57:44;101183.53;;;19.63;66.55
70009;BME280;59542;37.950;-122.338;2023-08-06T02:00:11;101183.63;;;19.73;65.59
70009;BME280;59542;37.950;-122.338;2023-08-06T02:02:37;101178.91;;;19.96;65.61
70009;BME280;59542;37.950;-122.338;2023-08-06T02:05:04;101182.13;;;19.93;65.48
70009;BME280;59542;37.950;-122.338;2023-08-06T02:07:30;101183.88;;;20.09;64.81
70009;BME280;59542;37.950;-122.338;2023-08-06T02:09:56;101192.13;;;20.19;64.79
70009;BME280;59542;37.950;-122.338;2023-08-06T02:12:23;101189.69;;;20.23;64.22
70009;BME280;59542;37.950;-122.338;2023-08-06T02:14:49;101188.97;;;20.33;64.22
70009;BME280;59542;37.950;-122.338;2023-08-06T02:17:15;101192.28;;;20.45;63.42
70009;BME280;59542;37.950;-122.338;2023-08-06T02:19:41;101192.41;;;20.60;62.74
70009;BME280;59542;37.950;-122.338;2023-08-06T02:22:09;101190.28;;;20.72;62.05
70009;BME280;59542;37.950;-122.338;2023-08-06T02:24:35;101191.47;;;21.02;61.30
70009;BME280;59542;37.950;-122.338;2023-08-06T02:27:01;101198.69;;;21.33;60.40
70009;BME280;59542;37.950;-122.338;2023-08-06T02:29:27;101192.97;;;21.35;60.24
70009;BME280;59542;37.950;-122.338;2023-08-06T02:31:54;101200.88;;;21.47;59.79
70009;BME280;59542;37.950;-122.338;2023-08-06T02:34:20;101204.72;;;21.56;59.59
70009;BME280;59542;37.950;-122.338;2023-08-06T02:36:46;101203.63;;;21.67;58.87
70009;BME280;59542;37.950;-122.338;2023-08-06T02:39:12;101202.28;;;21.54;58.79
70009;BME280;59542;37.950;-122.338;2023-08-06T02:41:39;101202.31;;;20.87;61.08
70009;BME280;59542;37.950;-122.338;2023-08-06T02:44:05;101205.75;;;20.67;61.89
70009;BME280;59542;37.950;-122.338;2023-08-06T02:46:31;101213.06;;;20.61;62.13
70009;BME280;59542;37.950;-122.338;2023-08-06T02:48:58;101204.31;;;20.49;62.24
70009;BME280;59542;37.950;-122.338;2023-08-06T02:51:24;101205.59;;;20.04;64.08
70009;BME280;59542;37.950;-122.338;2023-08-06T02:53:51;101206.66;;;19.71;65.13
70009;BME280;59542;37.950;-122.338;2023-08-06T02:56:17;101216.88;;;19.37;66.54
70009;BME280;59542;37.950;-122.338;2023-08-06T02:58:44;101221.84;;;19.18;67.61
70009;BME280;59542;37.950;-122.338;2023-08-06T03:01:10;101219.41;;;19.16;67.32
70009;BME280;59542;37.950;-122.338;2023-08-06T03:03:36;101235.91;;;18.93;68.58
70009;BME280;59542;37.950;-122.338;2023-08-06T03:06:03;101233.03;;;18.61;69.42
70009;BME280;59542;37.950;-122.338;2023-08-06T03:08:29;101231.94;;;18.23;71.29
70009;BME280;59542;37.950;-122.338;2023-08-06T03:10:56;101240.22;;;18.33;70.96
70009;BME280;59542;37.950;-122.338;2023-08-06T03:13:22;101241.44;;;18.26;71.90
70009;BME280;59542;37.950;-122.338;2023-08-06T03:15:55;101233.22;;;18.04;72.50
70009;BME280;59542;37.950;-122.338;2023-08-06T03:18:21;101228.13;;;17.74;74.15
70009;BME280;59542;37.950;-122.338;2023-08-06T03:20:48;101247.94;;;17.62;75.17
70009;BME280;59542;37.950;-122.338;2023-08-06T03:23:15;101245.31;;;17.67;74.54
70009;BME280;59542;37.950;-122.338;2023-08-06T03:25:41;101246.28;;;17.61;75.55
70009;BME280;59542;37.950;-122.338;2023-08-06T03:28:08;101239.41;;;17.42;76.20
70009;BME280;59542;37.950;-122.338;2023-08-06T03:30:34;101247.78;;;17.40;76.04
70009;BME280;59542;37.950;-122.338;2023-08-06T03:33:01;101248.72;;;17.46;75.83
70009;BME280;59542;37.950;-122.338;2023-08-06T03:35:27;101237.56;;;17.31;76.34
70009;BME280;59542;37.950;-122.338;2023-08-06T03:37:53;101237.47;;;17.26;76.71
70009;BME280;59542;37.950;-122.338;2023-08-06T03:40:20;101239.19;;;17.03;78.18
70009;BME280;59542;37.950;-122.338;2023-08-06T03:42:46;101252.25;;;17.06;77.82
70009;BME280;59542;37.950;-122.338;2023-08-06T03:45:12;101253.22;;;16.88;78.94
70009;BME280;59542;37.950;-122.338;2023-08-06T03:47:38;101249.00;;;16.81;79.40
70009;BME280;59542;37.950;-122.338;2023-08-06T03:50:05;101247.25;;;16.75;79.46
70009;BME280;59542;37.950;-122.338;2023-08-06T03:52:31;101248.78;;;16.82;79.07
70009;BME280;59542;37.950;-122.338;2023-08-06T03:54:58;101255.69;;;16.90;78.87
70009;BME280;59542;37.950;-122.338;2023-08-06T03:57:24;101257.81;;;16.88;78.75
70009;BME280;59542;37.950;-122.338;2023-08-06T03:59:50;101257.31;;;16.91;79.15
70009;BME280;59542;37.950;-122.338;2023-08-06T04:02:16;101262.28;;;16.94;78.80
70009;BME280;59542;37.950;-122.338;2023-08-06T04:04:43;101265.69;;;16.89;79.00
70009;BME280;59542;37.950;-122.338;2023-08-06T04:07:09;101268.16;;;16.91;79.43
70009;BME280;59542;37.950;-122.338;2023-08-06T04:10:00;101267.78;;;16.99;79.30
70009;BME280;59542;37.950;-122.338;2023-08-06T04:12:27;101267.78;;;16.87;79.92
70009;BME280;59542;37.950;-122.338;2023-08-06T04:14:54;101272.63;;;16.85;80.27
70009;BME280;59542;37.950;-122.338;2023-08-06T04:17:21;101281.31;;;16.99;79.78
70009;BME280;59542;37.950;-122.338;2023-08-06T04:19:51;101281.41;;;17.04;80.01
70009;BME280;59542;37.950;-122.338;2023-08-06T04:22:19;101278.13;;;16.91;80.82
70009;BME280;59542;37.950;-122.338;2023-08-06T04:24:45;101281.78;;;16.84;82.13
70009;BME280;59542;37.950;-122.338;2023-08-06T04:27:12;101284.13;;;16.81;82.30
70009;BME280;59542;37.950;-122.338;2023-08-06T04:29:39;101277.09;;;16.80;82.99
70009;BME280;59542;37.950;-122.338;2023-08-06T04:32:07;101284.13;;;16.81;83.00
70009;BME280;59542;37.950;-122.338;2023-08-06T04:34:35;101300.84;;;16.89;82.69
70009;BME280;59542;37.950;-122.338;2023-08-06T04:37:02;101304.38;;;16.90;83.17
70009;BME280;59542;37.950;-122.338;2023-08-06T04:39:29;101304.94;;;16.92;83.17
70009;BME280;59542;37.950;-122.338;2023-08-06T04:41:59;101305.28;;;16.96;82.93
70009;BME280;59542;37.950;-122.338;2023-08-06T04:44:26;101297.53;;;16.99;83.11
70009;BME280;59542;37.950;-122.338;2023-08-06T04:46:52;101297.78;;;16.86;84.08
70009;BME280;59542;37.950;-122.338;2023-08-06T04:49:20;101300.13;;;16.94;83.76
70009;BME280;59542;37.950;-122.338;2023-08-06T04:51:47;101298.13;;;17.01;83.14
70009;BME280;59542;37.950;-122.338;2023-08-06T04:54:13;101306.50;;;16.88;84.10
70009;BME280;59542;37.950;-122.338;2023-08-06T04:56:40;101309.06;;;16.95;83.07
70009;BME280;59542;37.950;-122.338;2023-08-06T04:59:06;101311.16;;;16.93;82.97
70009;BME280;59542;37.950;-122.338;2023-08-06T05:01:32;101296.38;;;16.95;82.62
70009;BME280;59542;37.950;-122.338;2023-08-06T05:03:58;101302.25;;;16.80;82.49
70009;BME280;59542;37.950;-122.338;2023-08-06T05:06:25;101302.13;;;16.75;82.30
70009;BME280;59542;37.950;-122.338;2023-08-06T05:08:51;101310.56;;;16.67;82.85
70009;BME280;59542;37.950;-122.338;2023-08-06T05:11:17;101308.84;;;16.73;82.10
70009;BME280;59542;37.950;-122.338;2023-08-06T05:13:43;101301.66;;;16.67;82.35
70009;BME280;59542;37.950;-122.338;2023-08-06T05:16:10;101304.69;;;16.82;81.41
70009;BME280;59542;37.950;-122.338;2023-08-06T05:18:36;101303.66;;;16.83;81.49
70009;BME280;59542;37.950;-122.338;2023-08-06T05:21:03;101297.63;;;16.57;82.10
70009;BME280;59542;37.950;-122.338;2023-08-06T05:23:29;101291.16;;;16.58;82.54
70009;BME280;59542;37.950;-122.338;2023-08-06T05:25:56;101293.88;;;16.70;82.69
70009;BME280;59542;37.950;-122.338;2023-08-06T05:28:22;101298.81;;;16.61;83.13
70009;BME280;59542;37.950;-122.338;2023-08-06T05:30:48;101296.81;;;16.69;83.45
70009;BME280;59542;37.950;-122.338;2023-08-06T05:33:14;101294.00;;;16.63;84.03
70009;BME280;59542;37.950;-122.338;2023-08-06T05:35:41;101299.75;;;16.67;84.07
70009;BME280;59542;37.950;-122.338;2023-08-06T05:38:08;101304.09;;;16.56;85.25
70009;BME280;59542;37.950;-122.338;2023-08-06T05:40:34;101301.03;;;16.64;85.42
70009;BME280;59542;37.950;-122.338;2023-08-06T05:43:01;101301.16;;;16.58;86.29
70009;BME280;59542;37.950;-122.338;2023-08-06T05:45:27;101300.13;;;16.71;85.21
70009;BME280;59542;37.950;-122.338;2023-08-06T05:47:53;101297.66;;;16.81;85.14
70009;BME280;59542;37.950;-122.338;2023-08-06T05:50:23;101290.84;;;16.78;84.38
70009;BME280;59542;37.950;-122.338;2023-08-06T05:52:50;101302.50;;;16.79;84.01
70009;BME280;59542;37.950;-122.338;2023-08-06T05:55:16;101301.31;;;16.75;83.86
70009;BME280;59542;37.950;-122.338;2023-08-06T05:57:42;101292.63;;;16.73;83.44
70009;BME280;59542;37.950;-122.338;2023-08-06T06:00:09;101307.63;;;16.69;83.83
70009;BME280;59542;37.950;-122.338;2023-08-06T06:02:35;101307.41;;;16.82;82.48
70009;BME280;59542;37.950;-122.338;2023-08-06T06:05:02;101301.91;;;16.77;82.60
70009;BME280;59542;37.950;-122.338;2023-08-06T06:07:28;101304.25;;;16.73;83.07
70009;BME280;59542;37.950;-122.338;2023-08-06T06:09:54;101311.19;;;16.81;82.33
70009;BME280;59542;37.950;-122.338;2023-08-06T06:12:20;101311.78;;;16.83;81.88
70009;BME280;59542;37.950;-122.338;2023-08-06T06:14:48;101319.41;;;16.86;81.16
70009;BME280;59542;37.950;-122.338;2023-08-06T06:17:16;101314.94;;;16.80;80.57
70009;BME280;59542;37.950;-122.338;2023-08-06T06:19:42;101317.50;;;16.86;80.46
70009;BME280;59542;37.950;-122.338;2023-08-06T06:22:08;101314.00;;;16.86;80.96
70009;BME280;59542;37.950;-122.338;2023-08-06T06:24:35;101312.44;;;16.67;82.46
70009;BME280;59542;37.950;-122.338;2023-08-06T06:27:01;101310.69;;;16.60;83.14
70009;BME280;59542;37.950;-122.338;2023-08-06T06:29:27;101308.44;;;16.57;83.34
70009;BME280;59542;37.950;-122.338;2023-08-06T06:31:53;101316.19;;;16.54;82.72
70009;BME280;59542;37.950;-122.338;2023-08-06T06:34:20;101310.56;;;16.44;83.09
70009;BME280;59542;37.950;-122.338;2023-08-06T06:36:46;101301.97;;;16.35;83.69
70009;BME280;59542;37.950;-122.338;2023-08-06T06:39:12;101303.38;;;16.37;83.10
70009;BME280;59542;37.950;-122.338;2023-08-06T06:41:39;101318.75;;;16.37;83.72
70009;BME280;59542;37.950;-122.338;2023-08-06T06:44:05;101325.69;;;16.33;84.33
70009;BME280;59542;37.950;-122.338;2023-08-06T06:46:32;101324.97;;;16.26;84.72
70009;BME280;59542;37.950;-122.338;2023-08-06T06:48:58;101326.16;;;16.30;84.79
70009;BME280;59542;37.950;-122.338;2023-08-06T06:51:24;101325.44;;;16.23;85.12
70009;BME280;59542;37.950;-122.338;2023-08-06T06:53:51;101324.41;;;16.35;84.75
70009;BME280;59542;37.950;-122.338;2023-08-06T06:56:17;101322.97;;;16.21;86.15
70009;BME280;59542;37.950;-122.338;2023-08-06T06:58:43;101320.16;;;16.16;86.71
70009;BME280;59542;37.950;-122.338;2023-08-06T07:01:09;101323.06;;;16.15;87.05
70009;BME280;59542;37.950;-122.338;2023-08-06T07:03:37;101328.44;;;16.03;88.07
70009;BME280;59542;37.950;-122.338;2023-08-06T07:06:03;101324.91;;;16.02;88.22
70009;BME280;59542;37.950;-122.338;2023-08-06T07:08:31;101325.25;;;15.94;88.83
70009;BME280;59542;37.950;-122.338;2023-08-06T07:11:04;101327.59;;;16.02;88.48
70009;BME280;59542;37.950;-122.338;2023-08-06T07:13:31;101321.88;;;16.10;87.72
70009;BME280;59542;37.950;-122.338;2023-08-06T07:15:58;101319.66;;;16.19;87.20
70009;BME280;59542;37.950;-122.338;2023-08-06T07:18:25;101320.69;;;16.06;87.97
70009;BME280;59542;37.950;-122.338;2023-08-06T07:20:52;101322.47;;;16.13;87.63
70009;BME280;59542;37.950;-122.338;2023-08-06T07:23:21;101315.63;;;16.10;87.66
70009;BME280;59542;37.950;-122.338;2023-08-06T07:25:48;101320.56;;;16.01;87.93
70009;BME280;59542;37.950;-122.338;2023-08-06T07:28:14;101326.50;;;15.92;88.43
70009;BME280;59542;37.950;-122.338;2023-08-06T07:30:42;101326.59;;;15.85;88.66
70009;BME280;59542;37.950;-122.338;2023-08-06T07:33:08;101325.88;;;15.78;88.65
70009;BME280;59542;37.950;-122.338;2023-08-06T07:35:35;101328.38;;;15.91;87.88
70009;BME280;59542;37.950;-122.338;2023-08-06T07:38:02;101340.28;;;15.72;88.56
70009;BME280;59542;37.950;-122.338;2023-08-06T07:40:29;101339.81;;;15.75;88.11
70009;BME280;59542;37.950;-122.338;2023-08-06T07:42:55;101345.38;;;15.62;88.82
70009;BME280;59542;37.950;-122.338;2023-08-06T07:45:21;101337.88;;;15.64;88.43
70009;BME280;59542;37.950;-122.338;2023-08-06T07:47:47;101338.34;;;15.61;88.94
70009;BME280;59542;37.950;-122.338;2023-08-06T07:50:14;101336.53;;;15.73;87.82
70009;BME280;59542;37.950;-122.338;2023-08-06T07:52:40;101339.88;;;15.87;86.86
70009;BME280;59542;37.950;-122.338;2023-08-06T07:55:06;101336.41;;;15.68;87.55
70009;BME280;59542;37.950;-122.338;2023-08-06T07:57:33;101329.84;;;15.75;87.39
70009;BME280;59542;37.950;-122.338;2023-08-06T08:00:03;101335.72;;;15.72;87.32
70009;BME280;59542;37.950;-122.338;2023-08-06T08:02:29;101332.06;;;15.67;87.46
70009;BME280;59542;37.950;-122.338;2023-08-06T08:04:56;101328.75;;;15.65;87.33
70009;BME280;59542;37.950;-122.338;2023-08-06T08:07:22;101324.09;;;15.72;87.17
70009;BME280;59542;37.950;-122.338;2023-08-06T08:09:48;101321.75;;;15.75;87.34
70009;BME280;59542;37.950;-122.338;2023-08-06T08:12:15;101316.75;;;15.61;87.87
70009;BME280;59542;37.950;-122.338;2023-08-06T08:14:41;101307.22;;;15.58;88.38
70009;BME280;59542;37.950;-122.338;2023-08-06T08:17:07;101313.16;;;15.30;90.35
70009;BME280;59542;37.950;-122.338;2023-08-06T08:19:34;101307.59;;;15.43;89.54
70009;BME280;59542;37.950;-122.338;2023-08-06T08:22:00;101301.19;;;15.44;89.41
70009;BME280;59542;37.950;-122.338;2023-08-06T08:24:26;101303.13;;;15.55;89.05
70009;BME280;59542;37.950;-122.338;2023-08-06T08:26:53;101295.97;;;15.61;88.64
70009;BME280;59542;37.950;-122.338;2023-08-06T08:29:20;101295.16;;;15.61;88.79
70009;BME280;59542;37.950;-122.338;2023-08-06T08:31:47;101305.94;;;15.61;88.66
70009;BME280;59542;37.950;-122.338;2023-08-06T08:34:17;101296.97;;;15.48;89.02
70009;BME280;59542;37.950;-122.338;2023-08-06T08:36:44;101287.69;;;15.44;89.74
70009;BME280;59542;37.950;-122.338;2023-08-06T08:39:13;101283.78;;;15.40;89.97
70009;BME280;59542;37.950;-122.338;2023-08-06T08:41:40;101288.28;;;15.46;90.13
70009;BME280;59542;37.950;-122.338;2023-08-06T08:44:10;101285.72;;;15.51;89.87
70009;BME280;59542;37.950;-122.338;2023-08-06T08:46:38;101289.47;;;15.50;90.54
70009;BME280;59542;37.950;-122.338;2023-08-06T08:49:06;101284.09;;;15.32;91.79
70009;BME280;59542;37.950;-122.338;2023-08-06T08:51:34;101278.84;;;15.37;91.80
70009;BME280;59542;37.950;-122.338;2023-08-06T08:54:03;101289.34;;;15.45;91.19
70009;BME280;59542;37.950;-122.338;2023-08-06T08:56:30;101289.47;;;15.50;90.67
70009;BME280;59542;37.950;-122.338;2023-08-06T08:58:57;101288.47;;;15.33;92.11
70009;BME280;59542;37.950;-122.338;2023-08-06T09:01:24;101265.09;;;15.57;91.16
70009;BME280;59542;37.950;-122.338;2023-08-06T09:03:51;101274.50;;;15.36;92.54
70009;BME280;59542;37.950;-122.338;2023-08-06T09:06:20;101281.69;;;15.42;92.21
70009;BME280;59542;37.950;-122.338;2023-08-06T09:08:56;101296.47;;;15.40;92.04
70009;BME280;59542;37.950;-122.338;2023-08-06T09:11:29;101298.41;;;15.32;92.49
70009;BME280;59542;37.950;-122.338;2023-08-06T09:13:57;101298.34;;;15.39;91.73
70009;BME280;59542;37.950;-122.338;2023-08-06T09:16:23;101292.84;;;15.46;91.19
70009;BME280;59542;37.950;-122.338;2023-08-06T09:18:50;101291.50;;;15.55;90.41
70009;BME280;59542;37.950;-122.338;2023-08-06T09:21:16;101286.44;;;15.28;91.64
70009;BME280;59542;37.950;-122.338;2023-08-06T09:23:42;101287.97;;;15.36;91.12
70009;BME280;59542;37.950;-122.338;2023-08-06T09:26:11;101278.78;;;15.25;91.56
70009;BME280;59542;37.950;-122.338;2023-08-06T09:28:39;101281.72;;;15.05;92.09
70009;BME280;59542;37.950;-122.338;2023-08-06T09:31:08;101284.44;;;15.05;92.22
70009;BME280;59542;37.950;-122.338;2023-08-06T09:33:38;101284.44;;;15.05;91.97
70009;BME280;59542;37.950;-122.338;2023-08-06T09:36:11;101279.09;;;15.17;91.30
70009;BME280;59542;37.950;-122.338;2023-08-06T09:38:39;101294.47;;;15.17;91.18
70009;BME280;59542;37.950;-122.338;2023-08-06T09:41:08;101290.84;;;15.04;92.01
70009;BME280;59542;37.950;-122.338;2023-08-06T09:43:41;101292.03;;;15.09;91.99
70009;BME280;59542;37.950;-122.338;2023-08-06T09:46:12;101297.28;;;15.03;92.34
70009;BME280;59542;37.950;-122.338;2023-08-06T09:48:45;101302.25;;;14.88;93.44
70009;BME280;59542;37.950;-122.338;2023-08-06T09:51:13;101296.78;;;14.95;93.09
70009;BME280;59542;37.950;-122.338;2023-08-06T09:53:40;101294.66;;;14.97;93.11
70009;BME280;59542;37.950;-122.338;2023-08-06T09:56:08;101297.88;;;14.87;93.81
70009;BME280;59542;37.950;-122.338;2023-08-06T09:58:36;101287.47;;;14.91;93.82
70009;BME280;59542;37.950;-122.338;2023-08-06T10:01:04;101299.38;;;14.83;94.45
70009;BME280;59542;37.950;-122.338;2023-08-06T10:03:30;101299.66;;;14.93;93.85
70009;BME280;59542;37.950;-122.338;2023-08-06T10:05:58;101300.28;;;14.95;93.59
70009;BME280;59542;37.950;-122.338;2023-08-06T10:08:24;101300.44;;;15.00;93.71
70009;BME280;59542;37.950;-122.338;2023-08-06T10:10:50;101286.97;;;15.00;93.46
70009;BME280;59542;37.950;-122.338;2023-08-06T10:13:17;101277.97;;;14.88;94.58
70009;BME280;59542;37.950;-122.338;2023-08-06T10:15:46;101280.88;;;14.87;94.86
70009;BME280;59542;37.950;-122.338;2023-08-06T10:18:13;101288.59;;;14.83;94.92
70009;BME280;59542;37.950;-122.338;2023-08-06T10:20:43;101289.78;;;14.87;94.62
70009;BME280;59542;37.950;-122.338;2023-08-06T10:23:10;101292.44;;;14.94;93.51
70009;BME280;59542;37.950;-122.338;2023-08-06T10:25:40;101287.16;;;14.99;93.14
70009;BME280;59542;37.950;-122.338;2023-08-06T10:28:11;101293.53;;;14.86;93.71
70009;BME280;59542;37.950;-122.338;2023-08-06T10:30:47;101280.97;;;14.98;93.09
70009;BME280;59542;37.950;-122.338;2023-08-06T10:33:14;101283.66;;;14.80;94.03
70009;BME280;59542;37.950;-122.338;2023-08-06T10:35:47;101279.28;;;14.61;94.64
70009;BME280;59542;37.950;-122.338;2023-08-06T10:38:20;101282.91;;;14.73;94.04
70009;BME280;59542;37.950;-122.338;2023-08-06T10:43:35;101284.03;;;14.84;93.25
70009;BME280;59542;37.950;-122.338;2023-08-06T10:46:22;101295.19;;;14.87;92.50
70009;BME280;59542;37.950;-122.338;2023-08-06T10:48:49;101298.09;;;14.86;92.48
70009;BME280;59542;37.950;-122.338;2023-08-06T10:51:15;101289.59;;;14.64;93.86
70009;BME280;59542;37.950;-122.338;2023-08-06T10:53:46;101289.59;;;14.64;94.05
70009;BME280;59542;37.950;-122.338;2023-08-06T10:56:22;101292.06;;;14.65;93.92
70009;BME280;59542;37.950;-122.338;2023-08-06T10:58:51;101293.50;;;14.49;94.81
70009;BME280;59542;37.950;-122.338;2023-08-06T11:01:18;101287.06;;;14.50;95.01
70009;BME280;59542;37.950;-122.338;2023-08-06T11:03:46;101284.97;;;14.46;95.65
70009;BME280;59542;37.950;-122.338;2023-08-06T11:06:22;101284.34;;;14.50;95.37
70009;BME280;59542;37.950;-122.338;2023-08-06T11:08:51;101279.72;;;14.58;95.34
70009;BME280;59542;37.950;-122.338;2023-08-06T11:11:18;101279.34;;;14.54;95.39
70009;BME280;59542;37.950;-122.338;2023-08-06T11:13:48;101268.13;;;14.57;95.03
70009;BME280;59542;37.950;-122.338;2023-08-06T11:16:16;101270.47;;;14.72;94.47
70009;BME280;59542;37.950;-122.338;2023-08-06T11:18:44;101280.09;;;14.36;96.02
70009;BME280;59542;37.950;-122.338;2023-08-06T11:21:11;101279.09;;;14.31;96.45
70009;BME280;59542;37.950;-122.338;2023-08-06T11:23:40;101283.00;;;14.60;95.40
70009;BME280;59542;37.950;-122.338;2023-08-06T11:26:07;101283.72;;;14.48;96.04
70009;BME280;59542;37.950;-122.338;2023-08-06T11:28:33;101281.44;;;14.52;96.04
70009;BME280;59542;37.950;-122.338;2023-08-06T11:31:00;101278.66;;;14.59;95.71
70009;BME280;59542;37.950;-122.338;2023-08-06T11:33:28;101281.88;;;14.49;96.07
70009;BME280;59542;37.950;-122.338;2023-08-06T11:35:56;101300.94;;;14.47;95.99
70009;BME280;59542;37.950;-122.338;2023-08-06T11:38:30;101293.94;;;14.65;95.08
70009;BME280;59542;37.950;-122.338;2023-08-06T11:40:56;101296.47;;;14.60;94.97
70009;BME280;59542;37.950;-122.338;2023-08-06T11:43:23;101301.59;;;14.68;94.80
70009;BME280;59542;37.950;-122.338;2023-08-06T11:45:50;101298.34;;;14.59;94.85
70009;BME280;59542;37.950;-122.338;2023-08-06T11:48:19;101297.59;;;14.52;95.62
70009;BME280;59542;37.950;-122.338;2023-08-06T11:50:45;101297.91;;;14.62;95.35
70009;BME280;59542;37.950;-122.338;2023-08-06T11:53:15;101289.59;;;14.64;94.95
70009;BME280;59542;37.950;-122.338;2023-08-06T11:55:41;101289.50;;;14.52;94.78
70009;BME280;59542;37.950;-122.338;2023-08-06T11:58:09;101287.47;;;14.47;95.66
70009;BME280;59542;37.950;-122.338;2023-08-06T12:00:41;101286.59;;;14.53;95.83
70009;BME280;59542;37.950;-122.338;2023-08-06T12:03:09;101300.56;;;14.44;95.63
70009;BME280;59542;37.950;-122.338;2023-08-06T12:05:36;101299.63;;;14.57;94.92
70009;BME280;59542;37.950;-122.338;2023-08-06T12:08:04;101300.00;;;14.60;94.52
70009;BME280;59542;37.950;-122.338;2023-08-06T12:10:31;101298.16;;;14.61;94.45
70009;BME280;59542;37.950;-122.338;2023-08-06T12:12:58;101307.41;;;14.65;94.17
70009;BME280;59542;37.950;-122.338;2023-08-06T12:15:24;101295.50;;;14.54;94.46
70009;BME280;59542;37.950;-122.338;2023-08-06T12:17:51;101299.69;;;14.50;95.23
70009;BME280;59542;37.950;-122.338;2023-08-06T12:20:17;101309.19;;;14.52;94.60
70009;BME280;59542;37.950;-122.338;2023-08-06T12:22:43;101314.91;;;14.63;94.32
70009;BME280;59542;37.950;-122.338;2023-08-06T12:25:11;101315.41;;;14.53;94.96
70009;BME280;59542;37.950;-122.338;2023-08-06T12:27:40;101318.91;;;14.53;94.48
70009;BME280;59542;37.950;-122.338;2023-08-06T12:30:07;101311.28;;;14.50;95.12
70009;BME280;59542;37.950;-122.338;2023-08-06T12:32:34;101314.34;;;14.54;94.60